sensor_id;sensor_type;location;lat;lon;timestamp;pressure;altitude;pressure_sealevel;temperature;humidity
12203;BME280;6164;42.178;24.622;2022-10-22T00:00:11;100646.53;;;6.50;100.00
12203;BME280;6164;42.178;24.622;2022-10-22T00:02:38;100639.03;;;6.45;100.00
12203;BME280;6164;42.178;24.622;2022-10-22T00:05:05;100640.22;;;6.41;100.00
12203;BME280;6164;42.178;24.622;2022-10-22T00:07:31;100641.84;;;6.31;100.00
12203;BME280;6164;42.178;24.622;2022-10-22T00:09:58;100638.84;;;6.25;100.00
12203;BME280;6164;42.178;24.622;2022-10-22T00:12:25;100640.31;;;6.29;100.00
12203;BME280;6164;42.178;24.622;2022-10-22T00:14:51;100629.22;;;6.25;100.00
12203;BME280;6164;42.178;24.622;2022-10-22T00:17:19;100625.06;;;6.34;100.00
12203;BME280;6164;42.178;24.622;2022-10-22T00:19:46;100618.00;;;6.34;100.00
12203;BME280;6164;42.178;24.622;2022-10-22T00:22:12;100619.59;;;6.37;100.00
12203;BME280;6164;42.178;24.622;2022-10-22T00:24:39;100612.56;;;6.37;100.00
12203;BME280;6164;42.178;24.622;2022-10-22T00:27:06;100616.59;;;6.30;100.00
12203;BME280;6164;42.178;24.622;2022-10-22T00:29:33;100603.59;;;6.29;100.00
12203;BME280;6164;42.178;24.622;2022-10-22T00:31:59;100613.00;;;6.20;100.00
12203;BME280;6164;42.178;24.622;2022-10-22T00:34:27;100616.75;;;6.05;100.00
12203;BME280;6164;42.178;24.622;2022-10-22T00:36:54;100604.38;;;5.96;100.00
12203;BME280;6164;42.178;24.622;2022-10-22T00:39:22;100610.53;;;5.95;100.00
12203;BME280;6164;42.178;24.622;2022-10-22T00:41:49;100615.09;;;6.04;100.00
12203;BME280;6164;42.178;24.622;2022-10-22T00:47:01;100609.38;;;5.99;100.00
12203;BME280;6164;42.178;24.622;2022-10-22T00:49:29;100610.31;;;5.98;100.00
12203;BME280;6164;42.178;24.622;2022-10-22T00:51:56;100609.00;;;5.80;100.00
12203;BME280;6164;42.178;24.622;2022-10-22T00:54:22;100617.03;;;5.55;100.00
12203;BME280;6164;42.178;24.622;2022-10-22T00:56:49;100607.16;;;5.35;100.00
12203;BME280;6164;42.178;24.622;2022-10-22T00:59:15;100611.91;;;5.17;100.00
12203;BME280;6164;42.178;24.622;2022-10-22T01:01:42;100608.78;;;5.12;100.00
12203;BME280;6164;42.178;24.622;2022-10-22T01:04:09;100610.69;;;5.10;100.00
12203;BME280;6164;42.178;24.622;2022-10-22T01:06:37;100611.94;;;5.05;100.00
12203;BME280;6164;42.178;24.622;2022-10-22T01:09:07;100608.72;;;5.01;100.00
12203;BME280;6164;42.178;24.622;2022-10-22T01:11:41;100604.53;;;4.99;100.00
12203;BME280;6164;42.178;24.622;2022-10-22T01:14:12;100591.25;;;5.02;100.00
12203;BME280;6164;42.178;24.622;2022-10-22T01:16:44;100591.53;;;5.10;100.00
12203;BME280;6164;42.178;24.622;2022-10-22T01:21:57;100600.34;;;5.09;100.00
12203;BME280;6164;42.178;24.622;2022-10-22T01:24:27;100598.03;;;5.04;100.00
12203;BME280;6164;42.178;24.622;2022-10-22T01:27:01;100610.41;;;5.02;100.00
12203;BME280;6164;42.178;24.622;2022-10-22T01:29:32;100602.75;;;4.99;100.00
12203;BME280;6164;42.178;24.622;2022-10-22T01:32:00;100613.72;;;5.04;100.00
12203;BME280;6164;42.178;24.622;2022-10-22T01:34:28;100606.03;;;4.90;100.00
12203;BME280;6164;42.178;24.622;2022-10-22T01:36:56;100602.28;;;4.82;100.00
12203;BME280;6164;42.178;24.622;2022-10-22T01:39:23;100599.75;;;4.80;100.00
12203;BME280;6164;42.178;24.622;2022-10-22T01:41:52;100607.06;;;4.88;100.00
12203;BME280;6164;42.178;24.622;2022-10-22T01:44:23;100601.41;;;4.94;100.00
12203;BME280;6164;42.178;24.622;2022-10-22T01:46:51;100605.38;;;4.99;100.00
12203;BME280;6164;42.178;24.622;2022-10-22T01:49:21;100586.63;;;5.05;100.00
12203;BME280;6164;42.178;24.622;2022-10-22T01:51:55;100589.03;;;5.08;100.00
12203;BME280;6164;42.178;24.622;2022-10-22T01:54:30;100595.69;;;5.12;100.00
12203;BME280;6164;42.178;24.622;2022-10-22T01:57:05;100588.69;;;5.13;100.00
12203;BME280;6164;42.178;24.622;2022-10-22T01:59:36;100594.47;;;5.05;100.00
12203;BME280;6164;42.178;24.622;2022-10-22T02:02:09;100593.41;;;5.08;100.00
12203;BME280;6164;42.178;24.622;2022-10-22T02:04:42;100591.41;;;5.11;100.00
12203;BME280;6164;42.178;24.622;2022-10-22T02:07:13;100597.38;;;5.13;100.00
12203;BME280;6164;42.178;24.622;2022-10-22T02:09:40;100591.06;;;5.16;100.00
12203;BME280;6164;42.178;24.622;2022-10-22T02:12:08;100592.78;;;5.17;100.00
12203;BME280;6164;42.178;24.622;2022-10-22T02:14:36;100594.19;;;5.21;100.00
12203;BME280;6164;42.178;24.622;2022-10-22T02:17:03;100594.72;;;5.26;100.00
12203;BME280;6164;42.178;24.622;2022-10-22T02:19:36;100595.31;;;5.29;100.00
12203;BME280;6164;42.178;24.622;2022-10-22T02:22:04;100591.66;;;5.32;100.00
12203;BME280;6164;42.178;24.622;2022-10-22T02:24:31;100600.13;;;5.35;100.00
12203;BME280;6164;42.178;24.622;2022-10-22T02:26:58;100594.56;;;5.40;100.00
12203;BME280;6164;42.178;24.622;2022-10-22T02:29:26;100592.75;;;5.40;100.00
12203;BME280;6164;42.178;24.622;2022-10-22T02:31:55;100595.19;;;5.44;100.00
12203;BME280;6164;42.178;24.622;2022-10-22T02:34:24;100598.63;;;5.44;100.00
12203;BME280;6164;42.178;24.622;2022-10-22T02:36:55;100597.88;;;5.42;100.00
12203;BME280;6164;42.178;24.622;2022-10-22T02:39:22;100606.47;;;5.44;100.00
12203;BME280;6164;42.178;24.622;2022-10-22T02:41:50;100605.53;;;5.45;100.00
12203;BME280;6164;42.178;24.622;2022-10-22T02:44:19;100598.63;;;5.44;100.00
12203;BME280;6164;42.178;24.622;2022-10-22T02:46:46;100598.84;;;5.41;100.00
12203;BME280;6164;42.178;24.622;2022-10-22T02:49:13;100593.50;;;5.43;100.00
12203;BME280;6164;42.178;24.622;2022-10-22T02:51:39;100586.38;;;5.45;100.00
12203;BME280;6164;42.178;24.622;2022-10-22T02:54:07;100578.63;;;5.43;100.00
12203;BME280;6164;42.178;24.622;2022-10-22T02:56:34;100587.22;;;5.45;100.00
12203;BME280;6164;42.178;24.622;2022-10-22T02:59:00;100582.63;;;5.36;100.00
12203;BME280;6164;42.178;24.622;2022-10-22T03:01:27;100592.09;;;5.26;100.00
12203;BME280;6164;42.178;24.622;2022-10-22T03:03:53;100591.53;;;5.10;100.00
12203;BME280;6164;42.178;24.622;2022-10-22T03:06:20;100594.47;;;5.05;100.00
12203;BME280;6164;42.178;24.622;2022-10-22T03:08:46;100589.88;;;5.09;100.00
12203;BME280;6164;42.178;24.622;2022-10-22T03:11:14;100596.75;;;5.10;100.00
12203;BME280;6164;42.178;24.622;2022-10-22T03:13:40;100598.88;;;5.05;100.00
12203;BME280;6164;42.178;24.622;2022-10-22T03:16:07;100594.28;;;4.96;100.00
12203;BME280;6164;42.178;24.622;2022-10-22T03:18:33;100600.91;;;4.89;100.00
12203;BME280;6164;42.178;24.622;2022-10-22T03:21:00;100597.66;;;4.85;100.00
12203;BME280;6164;42.178;24.622;2022-10-22T03:23:29;100591.47;;;4.86;100.00
12203;BME280;6164;42.178;24.622;2022-10-22T03:25:57;100597.56;;;4.87;100.00
12203;BME280;6164;42.178;24.622;2022-10-22T03:28:25;100596.28;;;4.92;100.00
12203;BME280;6164;42.178;24.622;2022-10-22T03:30:52;100600.00;;;5.01;100.00
12203;BME280;6164;42.178;24.622;2022-10-22T03:33:18;100552.44;;;4.83;100.00
12203;BME280;6164;42.178;24.622;2022-10-22T03:35:47;100587.75;;;5.14;100.00
12203;BME280;6164;42.178;24.622;2022-10-22T03:38:14;100585.53;;;5.20;100.00
12203;BME280;6164;42.178;24.622;2022-10-22T03:40:41;100582.59;;;5.25;100.00
12203;BME280;6164;42.178;24.622;2022-10-22T03:43:09;100595.56;;;5.26;100.00
12203;BME280;6164;42.178;24.622;2022-10-22T03:45:37;100586.81;;;5.15;100.00
12203;BME280;6164;42.178;24.622;2022-10-22T03:48:03;100592.53;;;5.20;100.00
12203;BME280;6164;42.178;24.622;2022-10-22T03:50:30;100582.06;;;5.20;100.00
12203;BME280;6164;42.178;24.622;2022-10-22T03:52:56;100585.13;;;5.14;100.00
12203;BME280;6164;42.178;24.622;2022-10-22T03:55:23;100588.50;;;5.03;100.00
12203;BME280;6164;42.178;24.622;2022-10-22T03:57:50;100587.34;;;5.07;100.00
12203;BME280;6164;42.178;24.622;2022-10-22T04:00:17;100589.25;;;5.05;100.00
12203;BME280;6164;42.178;24.622;2022-10-22T04:02:44;100582.66;;;5.00;100.00
12203;BME280;6164;42.178;24.622;2022-10-22T04:05:11;100594.38;;;4.94;100.00
12203;BME280;6164;42.178;24.622;2022-10-22T04:07:37;100593.06;;;4.89;100.00
12203;BME280;6164;42.178;24.622;2022-10-22T04:10:04;100600.59;;;4.81;100.00
12203;BME280;6164;42.178;24.622;2022-10-22T04:12:31;100595.06;;;4.60;100.00
12203;BME280;6164;42.178;24.622;2022-10-22T04:14:57;100601.69;;;4.41;100.00
12203;BME280;6164;42.178;24.622;2022-10-22T04:17:24;100593.94;;;4.39;100.00
12203;BME280;6164;42.178;24.622;2022-10-22T04:19:52;100602.63;;;4.40;100.00
12203;BME280;6164;42.178;24.622;2022-10-22T04:22:18;100597.09;;;4.44;100.00
12203;BME280;6164;42.178;24.622;2022-10-22T04:24:45;100600.63;;;4.43;100.00
12203;BME280;6164;42.178;24.622;2022-10-22T04:27:11;100599.25;;;4.50;100.00
12203;BME280;6164;42.178;24.622;2022-10-22T04:29:37;100597.41;;;4.40;100.00
12203;BME280;6164;42.178;24.622;2022-10-22T04:32:04;100602.53;;;4.41;100.00
12203;BME280;6164;42.178;24.622;2022-10-22T04:34:30;100609.75;;;4.38;100.00
12203;BME280;6164;42.178;24.622;2022-10-22T04:36:58;100601.47;;;4.44;100.00
12203;BME280;6164;42.178;24.622;2022-10-22T04:39:25;100602.84;;;4.49;100.00
12203;BME280;6164;42.178;24.622;2022-10-22T04:41:51;100611.19;;;4.54;100.00
12203;BME280;6164;42.178;24.622;2022-10-22T04:44:18;100608.69;;;4.53;100.00
12203;BME280;6164;42.178;24.622;2022-10-22T04:46:44;100603.03;;;4.59;100.00
12203;BME280;6164;42.178;24.622;2022-10-22T04:49:11;100599.16;;;4.64;100.00
12203;BME280;6164;42.178;24.622;2022-10-22T04:51:37;100603.22;;;4.68;100.00
12203;BME280;6164;42.178;24.622;2022-10-22T04:54:05;100595.38;;;4.68;100.00
12203;BME280;6164;42.178;24.622;2022-10-22T04:56:32;100590.25;;;4.67;100.00
12203;BME280;6164;42.178;24.622;2022-10-22T04:58:59;100594.84;;;4.63;100.00
12203;BME280;6164;42.178;24.622;2022-10-22T05:01:26;100587.75;;;4.65;100.00
12203;BME280;6164;42.178;24.622;2022-10-22T05:03:54;100581.91;;;4.74;100.00
12203;BME280;6164;42.178;24.622;2022-10-22T05:06:21;100582.50;;;4.78;100.00
12203;BME280;6164;42.178;24.622;2022-10-22T05:08:50;100580.09;;;4.87;100.00
12203;BME280;6164;42.178;24.622;2022-10-22T05:11:19;100583.81;;;4.96;100.00
12203;BME280;6164;42.178;24.622;2022-10-22T05:13:46;100590.94;;;4.94;100.00
12203;BME280;6164;42.178;24.622;2022-10-22T05:16:13;100591.47;;;4.99;100.00
12203;BME280;6164;42.178;24.622;2022-10-22T05:18:40;100586.22;;;4.99;100.00
12203;BME280;6164;42.178;24.622;2022-10-22T05:21:07;100595.28;;;5.06;100.00
12203;BME280;6164;42.178;24.622;2022-10-22T05:23:34;100592.78;;;5.17;100.00
12203;BME280;6164;42.178;24.622;2022-10-22T05:26:01;100599.84;;;5.27;100.00
12203;BME280;6164;42.178;24.622;2022-10-22T05:28:29;100602.16;;;5.32;100.00
12203;BME280;6164;42.178;24.622;2022-10-22T05:30:56;100604.97;;;5.29;100.00
12203;BME280;6164;42.178;24.622;2022-10-22T05:33:23;100599.53;;;5.32;100.00
12203;BME280;6164;42.178;24.622;2022-10-22T05:35:49;100595.38;;;5.40;100.00
12203;BME280;6164;42.178;24.622;2022-10-22T05:38:16;100590.88;;;5.43;100.00
12203;BME280;6164;42.178;24.622;2022-10-22T05:40:43;100596.72;;;5.46;100.00
12203;BME280;6164;42.178;24.622;2022-10-22T05:43:10;100589.50;;;5.50;100.00
12203;BME280;6164;42.178;24.622;2022-10-22T05:45:38;100576.53;;;5.59;100.00
12203;BME280;6164;42.178;24.622;2022-10-22T05:48:05;100566.22;;;5.69;100.00
12203;BME280;6164;42.178;24.622;2022-10-22T05:50:34;100567.31;;;5.77;100.00
12203;BME280;6164;42.178;24.622;2022-10-22T05:53:00;100572.97;;;5.84;100.00
12203;BME280;6164;42.178;24.622;2022-10-22T05:55:32;100570.28;;;5.96;100.00
12203;BME280;6164;42.178;24.622;2022-10-22T05:58:01;100572.09;;;6.07;100.00
12203;BME280;6164;42.178;24.622;2022-10-22T06:00:27;100575.56;;;6.18;100.00
12203;BME280;6164;42.178;24.622;2022-10-22T06:02:55;100566.28;;;6.25;100.00
12203;BME280;6164;42.178;24.622;2022-10-22T06:05:21;100571.16;;;6.41;100.00
12203;BME280;6164;42.178;24.622;2022-10-22T06:07:48;100575.00;;;6.59;100.00
12203;BME280;6164;42.178;24.622;2022-10-22T06:10:16;100572.38;;;6.70;100.00
12203;BME280;6164;42.178;24.622;2022-10-22T06:12:43;100560.69;;;6.85;100.00
12203;BME280;6164;42.178;24.622;2022-10-22T06:15:10;100573.16;;;7.04;100.00
12203;BME280;6164;42.178;24.622;2022-10-22T06:17:36;100568.84;;;7.25;100.00
12203;BME280;6164;42.178;24.622;2022-10-22T06:20:05;100564.00;;;7.41;100.00
12203;BME280;6164;42.178;24.622;2022-10-22T06:22:31;100568.16;;;7.54;100.00
12203;BME280;6164;42.178;24.622;2022-10-22T06:24:58;100570.13;;;7.62;100.00
12203;BME280;6164;42.178;24.622;2022-10-22T06:27:24;100560.03;;;7.78;100.00
12203;BME280;6164;42.178;24.622;2022-10-22T06:29:51;100555.88;;;7.96;100.00
12203;BME280;6164;42.178;24.622;2022-10-22T06:32:17;100565.81;;;8.13;100.00
12203;BME280;6164;42.178;24.622;2022-10-22T06:34:44;100567.91;;;8.30;100.00
12203;BME280;6164;42.178;24.622;2022-10-22T06:37:12;100562.97;;;8.46;100.00
12203;BME280;6164;42.178;24.622;2022-10-22T06:39:39;100571.22;;;8.62;100.00
12203;BME280;6164;42.178;24.622;2022-10-22T06:42:06;100568.50;;;8.73;100.00
12203;BME280;6164;42.178;24.622;2022-10-22T06:44:32;100571.03;;;8.84;100.00
12203;BME280;6164;42.178;24.622;2022-10-22T06:46:59;100572.44;;;8.98;100.00
12203;BME280;6164;42.178;24.622;2022-10-22T06:49:26;100580.69;;;9.14;100.00
12203;BME280;6164;42.178;24.622;2022-10-22T06:51:53;100585.41;;;9.20;100.00
12203;BME280;6164;42.178;24.622;2022-10-22T06:54:21;100589.03;;;9.28;100.00
12203;BME280;6164;42.178;24.622;2022-10-22T06:56:50;100592.81;;;9.36;100.00
12203;BME280;6164;42.178;24.622;2022-10-22T06:59:17;100591.00;;;9.46;99.86
12203;BME280;6164;42.178;24.622;2022-10-22T07:01:43;100588.94;;;9.59;99.22
12203;BME280;6164;42.178;24.622;2022-10-22T07:04:10;100585.19;;;9.71;98.60
12203;BME280;6164;42.178;24.622;2022-10-22T07:06:36;100585.19;;;9.80;98.78
12203;BME280;6164;42.178;24.622;2022-10-22T07:09:03;100590.31;;;9.91;98.89
12203;BME280;6164;42.178;24.622;2022-10-22T07:11:32;100584.34;;;9.99;97.32
12203;BME280;6164;42.178;24.622;2022-10-22T07:14:02;100580.19;;;9.96;96.33
12203;BME280;6164;42.178;24.622;2022-10-22T07:16:29;100577.28;;;9.99;95.40
12203;BME280;6164;42.178;24.622;2022-10-22T07:18:55;100572.13;;;10.07;95.46
12203;BME280;6164;42.178;24.622;2022-10-22T07:21:22;100585.75;;;10.12;96.06
12203;BME280;6164;42.178;24.622;2022-10-22T07:23:50;100581.56;;;10.29;95.87
12203;BME280;6164;42.178;24.622;2022-10-22T07:26:16;100576.78;;;10.42;94.62
12203;BME280;6164;42.178;24.622;2022-10-22T07:28:46;100571.78;;;10.48;93.66
12203;BME280;6164;42.178;24.622;2022-10-22T07:31:13;100574.97;;;10.52;92.38
12203;BME280;6164;42.178;24.622;2022-10-22T07:33:40;100573.41;;;10.59;92.45
12203;BME280;6164;42.178;24.622;2022-10-22T07:36:07;100580.06;;;10.63;91.47
12203;BME280;6164;42.178;24.622;2022-10-22T07:38:34;100575.91;;;10.60;90.52
12203;BME280;6164;42.178;24.622;2022-10-22T07:41:01;100573.28;;;10.60;90.71
12203;BME280;6164;42.178;24.622;2022-10-22T07:43:27;100576.72;;;10.71;91.08
12203;BME280;6164;42.178;24.622;2022-10-22T07:45:55;100575.97;;;10.78;90.54
12203;BME280;6164;42.178;24.622;2022-10-22T07:48:21;100565.44;;;10.96;91.19
12203;BME280;6164;42.178;24.622;2022-10-22T07:50:48;100567.47;;;11.11;90.19
12203;BME280;6164;42.178;24.622;2022-10-22T07:53:14;100564.59;;;11.22;88.20
12203;BME280;6164;42.178;24.622;2022-10-22T07:55:41;100566.06;;;11.34;86.91
12203;BME280;6164;42.178;24.622;2022-10-22T07:58:07;100564.91;;;11.37;84.90
12203;BME280;6164;42.178;24.622;2022-10-22T08:00:34;100556.31;;;11.52;85.89
12203;BME280;6164;42.178;24.622;2022-10-22T08:03:03;100552.19;;;11.67;86.15
12203;BME280;6164;42.178;24.622;2022-10-22T08:05:29;100555.75;;;11.76;83.64
12203;BME280;6164;42.178;24.622;2022-10-22T08:07:56;100553.69;;;11.87;83.02
12203;BME280;6164;42.178;24.622;2022-10-22T08:10:22;100554.13;;;12.01;82.59
12203;BME280;6164;42.178;24.622;2022-10-22T08:12:48;100543.75;;;12.07;83.69
12203;BME280;6164;42.178;24.622;2022-10-22T08:15:15;100549.31;;;12.22;81.96
12203;BME280;6164;42.178;24.622;2022-10-22T08:17:41;100555.03;;;12.35;83.40
12203;BME280;6164;42.178;24.622;2022-10-22T08:20:10;100553.41;;;12.42;82.62
12203;BME280;6164;42.178;24.622;2022-10-22T08:22:36;100557.91;;;12.49;79.33
12203;BME280;6164;42.178;24.622;2022-10-22T08:25:03;100550.50;;;12.53;78.39
12203;BME280;6164;42.178;24.622;2022-10-22T08:27:29;100549.84;;;12.59;77.52
12203;BME280;6164;42.178;24.622;2022-10-22T08:29:56;100550.72;;;12.67;77.92
12203;BME280;6164;42.178;24.622;2022-10-22T08:32:22;100553.56;;;12.74;76.49
12203;BME280;6164;42.178;24.622;2022-10-22T08:34:49;100546.28;;;12.76;76.53
12203;BME280;6164;42.178;24.622;2022-10-22T08:37:17;100548.47;;;12.80;76.38
12203;BME280;6164;42.178;24.622;2022-10-22T08:39:43;100533.28;;;12.90;76.27
12203;BME280;6164;42.178;24.622;2022-10-22T08:42:18;100533.13;;;13.00;75.70
12203;BME280;6164;42.178;24.622;2022-10-22T08:44:52;100531.19;;;13.10;75.22
12203;BME280;6164;42.178;24.622;2022-10-22T08:47:28;100528.91;;;13.23;74.55
12203;BME280;6164;42.178;24.622;2022-10-22T08:49:58;100520.84;;;13.41;74.79
12203;BME280;6164;42.178;24.622;2022-10-22T08:52:26;100515.03;;;13.53;73.05
12203;BME280;6164;42.178;24.622;2022-10-22T08:54:54;100520.00;;;13.48;71.52
12203;BME280;6164;42.178;24.622;2022-10-22T08:57:32;100522.66;;;13.64;70.12
12203;BME280;6164;42.178;24.622;2022-10-22T09:00:09;100515.38;;;13.82;69.00
12203;BME280;6164;42.178;24.622;2022-10-22T09:02:39;100502.94;;;13.91;68.42
12203;BME280;6164;42.178;24.622;2022-10-22T09:05:15;100503.38;;;14.10;68.06
12203;BME280;6164;42.178;24.622;2022-10-22T09:07:46;100504.38;;;14.33;66.90
12203;BME280;6164;42.178;24.622;2022-10-22T09:10:17;100506.31;;;14.56;66.62
12203;BME280;6164;42.178;24.622;2022-10-22T09:12:44;100519.72;;;14.62;64.13
12203;BME280;6164;42.178;24.622;2022-10-22T09:15:12;100504.09;;;14.67;64.22
12203;BME280;6164;42.178;24.622;2022-10-22T09:17:41;100498.94;;;14.74;63.90
12203;BME280;6164;42.178;24.622;2022-10-22T09:20:12;100495.56;;;14.80;62.86
12203;BME280;6164;42.178;24.622;2022-10-22T09:22:42;100492.88;;;14.88;62.96
12203;BME280;6164;42.178;24.622;2022-10-22T09:25:15;100487.34;;;14.97;61.89
12203;BME280;6164;42.178;24.622;2022-10-22T09:27:43;100491.84;;;15.19;61.02
12203;BME280;6164;42.178;24.622;2022-10-22T09:30:14;100493.66;;;15.27;60.05
12203;BME280;6164;42.178;24.622;2022-10-22T09:32:41;100499.91;;;15.34;59.63
12203;BME280;6164;42.178;24.622;2022-10-22T09:35:08;100488.06;;;15.44;59.98
12203;BME280;6164;42.178;24.622;2022-10-22T09:37:35;100488.00;;;15.52;59.42
12203;BME280;6164;42.178;24.622;2022-10-22T09:40:03;100477.47;;;15.59;60.33
12203;BME280;6164;42.178;24.622;2022-10-22T09:42:31;100472.06;;;15.67;59.31
12203;BME280;6164;42.178;24.622;2022-10-22T09:44:59;100466.56;;;15.68;57.90
12203;BME280;6164;42.178;24.622;2022-10-22T09:47:27;100463.38;;;15.73;58.04
12203;BME280;6164;42.178;24.622;2022-10-22T09:50:03;100458.84;;;15.73;58.12
12203;BME280;6164;42.178;24.622;2022-10-22T09:52:30;100454.38;;;15.74;58.27
12203;BME280;6164;42.178;24.622;2022-10-22T09:55:00;100453.63;;;15.80;58.68
12203;BME280;6164;42.178;24.622;2022-10-22T09:57:27;100447.91;;;15.91;58.69
12203;BME280;6164;42.178;24.622;2022-10-22T09:59:58;100450.56;;;15.91;57.35
12203;BME280;6164;42.178;24.622;2022-10-22T10:02:26;100455.91;;;16.06;57.33
12203;BME280;6164;42.178;24.622;2022-10-22T10:04:54;100437.34;;;16.12;57.55
12203;BME280;6164;42.178;24.622;2022-10-22T10:07:22;100439.34;;;16.10;56.51
12203;BME280;6164;42.178;24.622;2022-10-22T10:09:50;100438.19;;;16.13;56.86
12203;BME280;6164;42.178;24.622;2022-10-22T10:12:20;100436.97;;;16.15;56.84
12203;BME280;6164;42.178;24.622;2022-10-22T10:14:51;100442.38;;;16.22;56.50
12203;BME280;6164;42.178;24.622;2022-10-22T10:17:23;100426.78;;;16.19;56.04
12203;BME280;6164;42.178;24.622;2022-10-22T10:19:56;100421.44;;;16.33;55.62
12203;BME280;6164;42.178;24.622;2022-10-22T10:22:30;100406.56;;;16.39;56.42
12203;BME280;6164;42.178;24.622;2022-10-22T10:25:08;100413.78;;;16.45;55.36
12203;BME280;6164;42.178;24.622;2022-10-22T10:27:39;100395.53;;;16.56;56.88
12203;BME280;6164;42.178;24.622;2022-10-22T10:30:08;100395.22;;;16.66;55.53
12203;BME280;6164;42.178;24.622;2022-10-22T10:32:43;100385.06;;;16.76;55.94
12203;BME280;6164;42.178;24.622;2022-10-22T10:35:15;100383.97;;;16.85;55.67
12203;BME280;6164;42.178;24.622;2022-10-22T10:37:46;100390.41;;;16.97;55.50
12203;BME280;6164;42.178;24.622;2022-10-22T10:40:19;100396.41;;;16.99;54.11
12203;BME280;6164;42.178;24.622;2022-10-22T10:42:49;100389.88;;;17.01;53.36
12203;BME280;6164;42.178;24.622;2022-10-22T10:45:19;100371.72;;;17.12;54.52
12203;BME280;6164;42.178;24.622;2022-10-22T10:48:05;100376.84;;;17.13;53.20
12203;BME280;6164;42.178;24.622;2022-10-22T10:50:40;100374.84;;;17.22;53.30
12203;BME280;6164;42.178;24.622;2022-10-22T10:53:13;100359.34;;;17.32;53.38
12203;BME280;6164;42.178;24.622;2022-10-22T10:55:48;100355.53;;;17.41;53.42
12203;BME280;6164;42.178;24.622;2022-10-22T10:58:20;100356.34;;;17.41;53.22
12203;BME280;6164;42.178;24.622;2022-10-22T11:00:51;100361.31;;;17.44;51.94
12203;BME280;6164;42.178;24.622;2022-10-22T11:03:39;100362.31;;;17.43;51.04
12203;BME280;6164;42.178;24.622;2022-10-22T11:06:12;100351.91;;;17.48;51.39
12203;BME280;6164;42.178;24.622;2022-10-22T11:08:41;100335.94;;;17.55;51.56
12203;BME280;6164;42.178;24.622;2022-10-22T11:11:10;100334.53;;;17.59;51.07
12203;BME280;6164;42.178;24.622;2022-10-22T11:13:40;100310.78;;;17.70;53.21
12203;BME280;6164;42.178;24.622;2022-10-22T11:16:09;100315.16;;;17.84;52.23
12203;BME280;6164;42.178;24.622;2022-10-22T11:18:37;100329.59;;;17.90;50.87
12203;BME280;6164;42.178;24.622;2022-10-22T11:21:15;100325.53;;;18.00;51.00
12203;BME280;6164;42.178;24.622;2022-10-22T11:23:43;100327.59;;;18.05;49.86
12203;BME280;6164;42.178;24.622;2022-10-22T11:26:16;100326.13;;;18.02;49.91
12203;BME280;6164;42.178;24.622;2022-10-22T11:28:45;100316.97;;;18.18;50.84
12203;BME280;6164;42.178;24.622;2022-10-22T11:31:17;100322.59;;;18.36;49.65
12203;BME280;6164;42.178;24.622;2022-10-22T11:33:46;100322.03;;;18.47;49.78
12203;BME280;6164;42.178;24.622;2022-10-22T11:36:15;100320.63;;;18.58;49.44
12203;BME280;6164;42.178;24.622;2022-10-22T11:38:43;100329.91;;;18.68;48.18
12203;BME280;6164;42.178;24.622;2022-10-22T11:41:10;100322.50;;;18.77;48.18
12203;BME280;6164;42.178;24.622;2022-10-22T11:43:51;100335.69;;;18.78;47.11
12203;BME280;6164;42.178;24.622;2022-10-22T11:46:28;100327.28;;;18.94;47.22
12203;BME280;6164;42.178;24.622;2022-10-22T11:49:00;100317.41;;;19.14;47.11
12203;BME280;6164;42.178;24.622;2022-10-22T11:51:35;100307.53;;;19.34;47.90
12203;BME280;6164;42.178;24.622;2022-10-22T11:54:07;100336.19;;;19.47;45.76
12203;BME280;6164;42.178;24.622;2022-10-22T11:56:50;100349.97;;;19.63;45.19
12203;BME280;6164;42.178;24.622;2022-10-22T11:59:29;100323.75;;;19.79;45.93
12203;BME280;6164;42.178;24.622;2022-10-22T12:01:58;100347.84;;;19.92;44.69
12203;BME280;6164;42.178;24.622;2022-10-22T12:04:38;100334.44;;;19.98;45.62
12203;BME280;6164;42.178;24.622;2022-10-22T12:07:23;100309.22;;;20.12;46.26
12203;BME280;6164;42.178;24.622;2022-10-22T12:09:55;100337.63;;;20.33;44.08
12203;BME280;6164;42.178;24.622;2022-10-22T12:12:25;100353.88;;;20.44;43.48
12203;BME280;6164;42.178;24.622;2022-10-22T12:14:54;100353.84;;;20.51;42.70
12203;BME280;6164;42.178;24.622;2022-10-22T12:17:21;100373.25;;;20.46;42.08
12203;BME280;6164;42.178;24.622;2022-10-22T12:19:50;100367.47;;;20.43;42.82
12203;BME280;6164;42.178;24.622;2022-10-22T12:22:22;100333.84;;;20.47;44.27
12203;BME280;6164;42.178;24.622;2022-10-22T12:24:49;100328.47;;;20.47;43.30
12203;BME280;6164;42.178;24.622;2022-10-22T12:27:17;100350.19;;;20.39;42.95
12203;BME280;6164;42.178;24.622;2022-10-22T12:29:44;100351.03;;;20.33;42.70
12203;BME280;6164;42.178;24.622;2022-10-22T12:32:11;100344.44;;;20.29;42.41
12203;BME280;6164;42.178;24.622;2022-10-22T12:34:43;100349.81;;;20.29;42.41
12203;BME280;6164;42.178;24.622;2022-10-22T12:37:10;100326.69;;;20.34;42.98
12203;BME280;6164;42.178;24.622;2022-10-22T12:39:39;100319.63;;;20.40;42.89
12203;BME280;6164;42.178;24.622;2022-10-22T12:42:06;100311.75;;;20.45;43.06
12203;BME280;6164;42.178;24.622;2022-10-22T12:44:33;100332.16;;;20.52;41.76
12203;BME280;6164;42.178;24.622;2022-10-22T12:46:59;100330.50;;;20.51;41.88
12203;BME280;6164;42.178;24.622;2022-10-22T12:49:28;100330.69;;;20.56;41.88
12203;BME280;6164;42.178;24.622;2022-10-22T12:51:59;100342.00;;;20.65;41.45
12203;BME280;6164;42.178;24.622;2022-10-22T12:54:28;100305.19;;;20.78;42.81
12203;BME280;6164;42.178;24.622;2022-10-22T12:56:57;100316.25;;;20.88;41.70
12203;BME280;6164;42.178;24.622;2022-10-22T12:59:24;100322.00;;;20.92;41.68
12203;BME280;6164;42.178;24.622;2022-10-22T13:01:52;100347.81;;;20.93;40.81